Time;durP1;ratioP1;P1;durP2;ratioP2;P2;SDS_P1;SDS_P2;PMS_P1;PMS_P2;Temp;Humidity;BMP_temperature;BMP_pressure;BME280_temperature;BME280_humidity;BME280_pressure;Samples;Min_cycle;Max_cycle;Signal;HPM_P1;HPM_P2
2021/12/16 00:08:15;;;;;;;5.27;3.60;;;;;;;4.99;65.00;97870.47;5060038;28;20206;-68
2021/12/16 00:33:19;;;;;;;5.77;3.70;;;;;;;5.01;64.87;97868.75;5069459;28;20188;-68
2021/12/16 00:36:39;;;;;;;5.23;4.10;;;;;;;4.97;65.37;97866.25;5069086;28;20212;-68
2021/12/16 00:40:00;;;;;;;7.27;3.83;;;;;;;4.86;65.13;97859.47;5066831;28;20645;-67
2021/12/16 00:43:29;;;;;;;5.67;4.13;;;;;;;4.91;66.23;97870.56;5068971;28;20221;-68
2021/12/16 00:54:09;;;;;;;6.23;4.03;;;;;;;4.82;66.60;97850.13;5069255;28;20189;-67
2021/12/16 00:54:10;;;;;;;3.97;3.47;;;;;;;4.78;65.91;97852.75;5066955;28;20203;-66
2021/12/16 00:57:31;;;;;;;6.13;3.90;;;;;;;4.76;67.21;97857.06;5066486;28;20603;-67
2021/12/16 01:00:59;;;;;;;4.97;3.30;;;;;;;4.73;66.56;97857.06;5068287;28;20189;-66
2021/12/16 01:48:03;;;;;;;5.83;4.10;;;;;;;4.32;68.31;97830.94;5065828;28;20192;-69
2021/12/16 01:51:26;;;;;;;6.80;4.10;;;;;;;4.34;69.33;97842.91;5065915;28;20360;-67
2021/12/16 01:55:08;;;;;;;6.67;4.27;;;;;;;4.24;69.50;97822.47;5068199;28;20527;-67
2021/12/16 01:58:31;;;;;;;6.73;4.00;;;;;;;4.17;69.91;97819.09;5065727;28;20276;-67
2021/12/16 02:01:59;;;;;;;8.07;4.03;;;;;;;4.08;70.21;97824.31;5065020;28;20201;-68
2021/12/16 02:05:29;;;;;;;5.67;4.30;;;;;;;4.04;70.59;97827.75;5065395;28;20204;-67
2021/12/16 02:08:49;;;;;;;6.77;4.60;;;;;;;3.93;71.02;97834.69;5065452;28;20249;-66
2021/12/16 02:12:24;;;;;;;7.63;5.13;;;;;;;3.85;71.07;97832.16;5063726;28;20192;-67
2021/12/16 02:34:19;;;;;;;7.43;5.23;;;;;;;3.52;73.21;97836.66;5067418;28;20185;-68
2021/12/16 02:37:43;;;;;;;9.27;5.80;;;;;;;3.53;73.11;97838.34;5065735;28;20622;-66
2021/12/16 02:41:04;;;;;;;8.70;5.30;;;;;;;3.51;72.67;97829.81;5064529;28;20281;-69
2021/12/16 02:51:05;;;;;;;9.63;6.17;;;;;;;3.39;73.18;97807.69;5067152;28;20272;-67
2021/12/16 02:54:26;;;;;;;9.07;5.93;;;;;;;3.38;73.19;97817.97;5064822;28;20258;-67
2021/12/16 02:57:59;;;;;;;8.00;4.80;;;;;;;3.34;73.28;97829.91;5064336;28;20193;-65
2021/12/16 03:01:21;;;;;;;9.67;5.47;;;;;;;3.35;72.99;97823.06;5066198;28;20189;-66
2021/12/16 03:04:42;;;;;;;8.13;5.50;;;;;;;3.36;73.07;97824.78;5064892;28;20200;-65
2021/12/16 03:08:03;;;;;;;6.63;4.40;;;;;;;3.37;72.64;97813.69;5065062;28;20897;-64
2021/12/16 03:11:33;;;;;;;6.67;4.77;;;;;;;3.43;72.34;97821.31;5066713;28;20280;-67
2021/12/16 03:15:00;;;;;;;7.60;4.37;;;;;;;3.42;72.61;97825.59;5066115;28;20227;-68
2021/12/16 03:21:49;;;;;;;7.23;3.63;;;;;;;3.48;71.81;97829.84;5064661;28;20232;-67
2021/12/16 03:25:25;;;;;;;8.17;5.27;;;;;;;3.41;71.45;97829.03;5066605;28;20680;-67
2021/12/16 03:39:44;;;;;;;8.47;5.00;;;;;;;3.47;70.30;97841.78;5064029;28;20728;-67
2021/12/16 03:43:08;;;;;;;8.57;4.47;;;;;;;3.43;70.12;97841.81;5066193;28;20239;-68
2021/12/16 03:49:29;;;;;;;8.13;4.87;;;;;;;3.43;70.61;97844.38;5063883;28;20201;-67
2021/12/16 03:52:51;;;;;;;7.73;4.33;;;;;;;3.42;69.66;97853.75;5064544;28;20189;-65
2021/12/16 03:56:12;;;;;;;8.13;4.20;;;;;;;3.45;69.36;97840.09;5068386;28;20201;-67
2021/12/16 03:59:43;;;;;;;6.80;4.07;;;;;;;3.51;68.84;97838.34;5069124;28;20216;-65
2021/12/16 04:03:24;;;;;;;6.70;4.30;;;;;;;3.46;68.59;97847.78;5070352;28;20231;-66
2021/12/16 04:06:45;;;;;;;4.60;3.77;;;;;;;3.47;68.18;97846.06;5067332;28;20270;-68
2021/12/16 04:10:06;;;;;;;6.90;4.43;;;;;;;3.43;68.42;97840.09;5069483;28;20197;-69
2021/12/16 04:13:27;;;;;;;6.53;4.20;;;;;;;3.44;67.89;97844.38;5070036;28;20189;-66
2021/12/16 04:16:54;;;;;;;5.60;4.20;;;;;;;3.39;68.38;97840.13;5067935;28;20268;-67
2021/12/16 04:20:26;;;;;;;5.53;3.80;;;;;;;3.41;68.36;97851.19;5066673;28;20719;-66
2021/12/16 04:23:47;;;;;;;6.83;5.03;;;;;;;3.38;67.97;97849.50;5046743;28;20300;-68
2021/12/16 04:27:08;;;;;;;5.93;4.30;;;;;;;3.38;67.50;97858.91;5047474;28;20193;-68
2021/12/16 04:30:30;;;;;;;7.20;3.97;;;;;;;3.38;67.35;97861.47;5056528;28;20242;-65
2021/12/16 04:33:51;;;;;;;6.50;3.60;;;;;;;3.35;67.74;97864.03;5062386;28;20204;-67
2021/12/16 04:37:15;;;;;;;5.20;3.70;;;;;;;3.29;67.75;97862.34;5067490;28;20707;-66
2021/12/16 04:40:36;;;;;;;5.77;3.87;;;;;;;3.27;68.10;97867.50;5066564;28;20217;-67
2021/12/16 04:43:59;;;;;;;6.57;3.77;;;;;;;3.25;67.88;97858.97;5067344;28;20229;-67
2021/12/16 04:47:20;;;;;;;7.23;4.37;;;;;;;3.28;67.96;97852.97;5067697;28;20216;-67
2021/12/16 04:50:41;;;;;;;6.03;3.27;;;;;;;3.29;67.27;97860.66;5066758;28;20193;-68
2021/12/16 04:54:02;;;;;;;6.73;3.30;;;;;;;3.25;67.69;97869.22;5066380;28;20708;-72
2021/12/16 04:57:23;;;;;;;6.37;4.00;;;;;;;3.22;67.89;97869.19;5066714;28;20193;-70
2021/12/16 05:00:44;;;;;;;7.03;4.20;;;;;;;3.19;67.57;97868.38;5059611;28;20720;-69
2021/12/16 05:04:18;;;;;;;7.00;3.80;;;;;;;3.09;67.98;97872.66;5058503;28;20661;-68
2021/12/16 05:07:42;;;;;;;7.73;3.70;;;;;;;3.05;68.71;97854.78;5068465;28;20198;-70
2021/12/16 05:11:09;;;;;;;10.20;5.17;;;;;;;3.02;68.17;97860.75;5066801;28;20740;-71
2021/12/16 05:14:30;;;;;;;7.00;4.00;;;;;;;2.94;69.10;97864.19;5066679;28;20769;-70
2021/12/16 05:17:54;;;;;;;8.67;4.30;;;;;;;2.94;68.56;97847.13;5066857;28;20212;-69
2021/12/16 05:20:40;;;;;;;7.17;4.23;;;;;;;2.94;69.28;97849.69;5068796;28;20197;-69
2021/12/16 05:28:30;;;;;;;10.40;3.90;;;;;;;2.90;68.47;97855.69;5066734;28;20193;-64
2021/12/16 05:30:59;;;;;;;10.47;4.97;;;;;;;2.84;69.56;97850.59;5083642;28;20209;-70
2021/12/16 05:33:29;;;;;;;8.50;4.50;;;;;;;2.87;69.74;97850.56;5067194;28;20228;-63
2021/12/16 05:35:57;;;;;;;7.97;4.90;;;;;;;2.84;69.54;97853.13;5067722;28;20228;-71
2021/12/16 05:38:27;;;;;;;8.53;4.30;;;;;;;2.80;69.73;97856.56;5084172;28;20675;-69
2021/12/16 05:40:55;;;;;;;10.47;4.97;;;;;;;2.86;69.69;97853.13;5066545;28;20200;-71
2021/12/16 05:43:29;;;;;;;7.90;4.10;;;;;;;2.85;69.31;97867.63;5049314;28;20632;-70
2021/12/16 05:45:59;;;;;;;9.20;4.73;;;;;;;2.86;69.78;97863.34;5066537;28;20204;-71
2021/12/16 05:48:30;;;;;;;10.33;4.57;;;;;;;2.79;68.90;97857.41;5066569;28;20177;-70
2021/12/16 05:51:04;;;;;;;8.30;4.77;;;;;;;2.84;69.47;97860.81;5066866;28;20225;-71
2021/12/16 05:53:33;;;;;;;7.87;5.00;;;;;;;2.88;69.45;97856.53;5065362;28;20196;-72
2021/12/16 05:56:05;;;;;;;8.10;5.10;;;;;;;2.87;69.69;97845.44;5066076;28;20212;-70
2021/12/16 05:58:37;;;;;;;5.80;4.37;;;;;;;2.82;69.58;97851.44;5065556;28;20278;-70
2021/12/16 06:01:12;;;;;;;7.07;4.20;;;;;;;2.88;69.45;97864.19;5065346;28;20648;-68
2021/12/16 06:03:43;;;;;;;7.97;3.87;;;;;;;2.88;68.59;97857.38;5049352;28;20751;-64
2021/12/16 06:06:11;;;;;;;7.10;4.63;;;;;;;2.94;69.17;97856.50;5065634;28;20185;-63
2021/12/16 06:08:40;;;;;;;8.20;4.77;;;;;;;2.87;68.99;97854.81;5066489;28;20268;-67
2021/12/16 06:11:17;;;;;;;8.83;5.03;;;;;;;2.84;68.81;97848.03;5066811;28;20225;-72
2021/12/16 06:14:21;;;;;;;10.73;5.73;;;;;;;2.88;69.11;97856.53;5066234;28;20259;-72
2021/12/16 06:27:56;;;;;;;10.33;5.60;;;;;;;2.95;68.36;97859.06;5066691;28;20185;-69
2021/12/16 06:30:30;;;;;;;8.23;5.40;;;;;;;2.94;69.41;97852.25;5067469;28;20220;-70
2021/12/16 06:32:57;;;;;;;6.70;4.27;;;;;;;2.95;68.79;97853.94;5066559;28;20194;-71
2021/12/16 06:35:25;;;;;;;7.40;4.73;;;;;;;2.94;69.36;97856.50;5067117;28;20212;-70
2021/12/16 06:37:53;;;;;;;6.30;4.43;;;;;;;2.91;69.34;97861.63;5065793;28;20189;-69
2021/12/16 06:40:31;;;;;;;7.23;4.43;;;;;;;2.86;69.60;97848.88;5065105;28;20679;-68
2021/12/16 06:43:10;;;;;;;10.93;5.07;;;;;;;2.95;69.13;97858.19;5082536;28;20289;-70
2021/12/16 06:45:42;;;;;;;12.40;5.60;;;;;;;3.03;69.76;97865.00;5065115;28;20203;-66
2021/12/16 06:48:14;;;;;;;11.67;7.20;;;;;;;3.21;69.02;97871.78;5066873;28;20285;-71
2021/12/16 06:51:03;;;;;;;15.80;8.90;;;;;;;3.39;68.92;97873.41;5066611;28;20274;-65
2021/12/16 06:53:44;;;;;;;13.67;9.07;;;;;;;3.58;68.28;97854.53;5065145;28;20666;-70
2021/12/16 06:56:39;;;;;;;14.87;9.30;;;;;;;3.91;67.93;97868.00;5065656;28;20278;-69
2021/12/16 06:59:21;;;;;;;21.40;9.57;;;;;;;4.13;67.66;97869.56;5065886;28;20727;-71
2021/12/16 07:02:06;;;;;;;15.03;9.83;;;;;;;4.38;67.65;97859.97;5066098;28;20216;-70
2021/12/16 07:04:35;;;;;;;20.27;8.63;;;;;;;4.42;66.40;97866.75;5067024;28;20196;-70
2021/12/16 07:07:04;;;;;;;15.90;9.83;;;;;;;4.33;65.77;97864.25;5065920;28;20696;-66
2021/12/16 07:09:32;;;;;;;15.60;8.13;;;;;;;4.23;66.43;97857.50;5066563;28;20756;-67
2021/12/16 07:12:00;;;;;;;17.47;9.33;;;;;;;4.20;66.69;97847.28;5065098;28;20258;-66
2021/12/16 07:14:36;;;;;;;16.03;10.30;;;;;;;4.33;67.04;97855.75;5066288;28;20196;-67
2021/12/16 07:17:12;;;;;;;16.27;8.53;;;;;;;4.31;66.18;97863.41;5066634;28;20660;-70
2021/12/16 07:19:41;;;;;;;11.53;8.23;;;;;;;4.34;66.26;97850.59;5065596;28;20315;-67
2021/12/16 07:22:10;;;;;;;14.53;8.97;;;;;;;4.33;66.84;97856.56;5066653;28;20293;-68
2021/12/16 07:24:37;;;;;;;15.87;8.37;;;;;;;4.48;66.28;97863.28;5065856;28;20218;-69
2021/12/16 07:27:06;;;;;;;21.23;8.00;;;;;;;4.36;67.42;97866.81;5066501;28;20667;-68
2021/12/16 07:29:34;;;;;;;20.53;9.00;;;;;;;4.30;66.82;97866.00;5069887;28;20192;-68
2021/12/16 07:32:01;;;;;;;17.97;8.90;;;;;;;4.33;66.61;97866.81;5068320;28;20232;-67
2021/12/16 07:34:30;;;;;;;17.30;10.80;;;;;;;4.32;66.43;97865.13;5070479;28;20200;-68
2021/12/16 07:36:59;;;;;;;18.87;8.80;;;;;;;4.38;67.00;97859.09;5069346;28;20222;-70
2021/12/16 07:39:37;;;;;;;16.87;8.17;;;;;;;4.39;66.99;97860.81;5070310;28;20228;-70
2021/12/16 07:42:06;;;;;;;19.77;8.57;;;;;;;4.33;66.55;97871.13;5069559;28;20719;-66
2021/12/16 07:44:34;;;;;;;19.13;10.10;;;;;;;4.39;66.76;97876.19;5069689;28;20612;-71
2021/12/16 07:47:05;;;;;;;15.50;8.90;;;;;;;4.38;66.83;97867.66;5070123;28;20784;-68
2021/12/16 07:49:39;;;;;;;14.10;8.90;;;;;;;4.42;67.51;97874.44;5069161;28;20185;-69
2021/12/16 07:52:11;;;;;;;17.77;9.20;;;;;;;4.39;67.63;97864.22;5085502;28;20691;-68
2021/12/16 07:54:39;;;;;;;14.90;9.57;;;;;;;4.36;67.84;97861.69;5069333;28;20211;-68
2021/12/16 07:57:06;;;;;;;16.10;9.40;;;;;;;4.34;67.39;97868.53;5069764;28;20518;-66
2021/12/16 07:59:34;;;;;;;13.90;8.83;;;;;;;4.43;66.68;97871.00;5069378;28;20230;-66
2021/12/16 08:02:03;;;;;;;17.90;11.53;;;;;;;4.49;67.53;97868.38;5068171;28;20206;-69
2021/12/16 08:04:32;;;;;;;22.03;12.67;;;;;;;4.43;67.92;97873.56;5069749;28;20683;-68
2021/12/16 08:07:08;;;;;;;21.30;11.27;;;;;;;4.49;67.24;97878.66;5067477;28;20305;-69
2021/12/16 08:09:40;;;;;;;20.13;12.10;;;;;;;4.40;67.28;97865.06;5069926;28;20733;-67
2021/12/16 08:12:12;;;;;;;22.53;11.80;;;;;;;4.49;67.12;97876.06;5069286;28;20284;-68
2021/12/16 08:14:41;;;;;;;20.33;9.47;;;;;;;4.42;67.20;97886.41;5070304;28;20196;-68
2021/12/16 08:17:08;;;;;;;14.40;8.60;;;;;;;4.46;66.23;97873.56;5069541;28;20235;-70
2021/12/16 08:19:36;;;;;;;11.73;5.97;;;;;;;4.52;65.58;97878.63;5068880;28;20217;-67
2021/12/16 08:22:04;;;;;;;13.83;7.47;;;;;;;4.49;65.73;97878.66;5069128;28;20197;-70
2021/12/16 08:24:34;;;;;;;10.53;6.20;;;;;;;4.50;65.71;97887.19;5068229;28;20189;-69
2021/12/16 08:27:06;;;;;;;12.23;7.67;;;;;;;4.63;64.92;97896.50;5067956;28;20264;-71
2021/12/16 08:29:33;;;;;;;13.17;7.27;;;;;;;4.60;65.25;97897.38;5068626;28;20221;-69
2021/12/16 08:32:00;;;;;;;10.03;5.73;;;;;;;4.66;64.22;97896.44;5068956;28;20189;-71
2021/12/16 08:34:30;;;;;;;8.83;5.30;;;;;;;4.73;65.05;97900.69;5069219;28;20695;-75
2021/12/16 08:36:58;;;;;;;12.83;8.33;;;;;;;4.87;64.53;97898.81;5083929;28;20194;-69
2021/12/16 08:39:26;;;;;;;12.40;7.50;;;;;;;4.94;63.57;97900.47;5069142;28;20220;-68
2021/12/16 08:41:57;;;;;;;17.33;10.00;;;;;;;4.99;63.68;97903.00;5068172;28;20668;-69
2021/12/16 08:44:25;;;;;;;15.57;8.40;;;;;;;5.01;63.20;97903.84;5084243;28;20535;-68
2021/12/16 08:46:56;;;;;;;19.13;9.40;;;;;;;4.91;63.83;97903.06;5067267;28;20213;-68
2021/12/16 08:49:24;;;;;;;12.40;6.60;;;;;;;4.90;63.96;97901.38;5068460;28;20566;-70
2021/12/16 08:51:56;;;;;;;12.07;7.33;;;;;;;4.90;64.64;97904.78;5069403;28;20225;-70
2021/12/16 08:54:24;;;;;;;12.67;6.60;;;;;;;4.89;64.19;97907.34;5082948;28;20181;-69
2021/12/16 08:56:51;;;;;;;8.97;5.43;;;;;;;4.78;63.44;97892.06;5067476;28;20293;-67
2021/12/16 08:59:19;;;;;;;7.77;5.40;;;;;;;4.65;64.81;97898.19;5068075;28;20333;-68
2021/12/16 09:01:50;;;;;;;10.13;5.20;;;;;;;4.55;64.57;97901.69;5068997;28;20205;-69
2021/12/16 09:04:19;;;;;;;8.90;5.40;;;;;;;4.37;65.22;97896.69;5068491;28;20181;-68
2021/12/16 09:06:47;;;;;;;10.27;5.10;;;;;;;4.37;65.79;97893.31;5068146;28;20185;-70
2021/12/16 09:09:15;;;;;;;9.47;5.90;;;;;;;4.23;65.61;97890.84;5068521;28;20651;-71
2021/12/16 09:12:00;;;;;;;13.97;6.67;;;;;;;4.32;66.41;97884.78;5067620;28;20279;-71
2021/12/16 09:14:28;;;;;;;13.83;6.27;;;;;;;4.10;66.37;97864.44;5068219;28;20193;-69
2021/12/16 09:16:55;;;;;;;10.50;6.90;;;;;;;4.25;66.21;97878.84;5068086;28;20633;-71
2021/12/16 09:19:22;;;;;;;66.07;25.43;;;;;;;4.25;66.04;97867.75;5068323;28;20238;-68
2021/12/16 09:21:50;;;;;;;60.90;36.57;;;;;;;4.37;66.67;97873.63;5068153;28;20695;-70
2021/12/16 09:24:17;;;;;;;25.57;18.00;;;;;;;4.38;66.01;97874.47;5067569;28;20219;-69
2021/12/16 09:26:45;;;;;;;10.90;5.97;;;;;;;4.32;66.30;97862.56;5068769;28;20685;-69
2021/12/16 09:29:12;;;;;;;14.30;5.57;;;;;;;4.33;66.31;97850.63;5065951;28;20189;-71
2021/12/16 09:31:39;;;;;;;8.50;6.03;;;;;;;4.31;66.15;97848.03;5067838;28;20189;-67
2021/12/16 09:34:07;;;;;;;11.10;5.97;;;;;;;4.38;65.17;97867.66;5067722;28;20197;-69
2021/12/16 09:36:42;;;;;;;9.77;5.57;;;;;;;4.34;65.43;97852.28;5067348;28;20221;-70
2021/12/16 09:39:14;;;;;;;10.80;6.07;;;;;;;4.42;65.95;97850.50;5067819;28;20197;-69
2021/12/16 09:41:45;;;;;;;9.87;5.77;;;;;;;4.40;65.63;97858.22;5066714;28;20201;-70
2021/12/16 09:44:16;;;;;;;8.03;5.60;;;;;;;4.24;64.55;97802.81;5067922;28;20280;-69
2021/12/16 09:46:47;;;;;;;15.70;9.33;;;;;;;4.62;64.58;97848.63;5065901;28;20204;-68
2021/12/16 09:49:17;;;;;;;10.37;6.77;;;;;;;4.57;64.42;97835.84;5067393;28;20193;-69
2021/12/16 09:51:45;;;;;;;8.70;6.23;;;;;;;4.54;64.60;97827.31;5065102;28;20205;-70
2021/12/16 09:54:19;;;;;;;11.80;6.27;;;;;;;4.62;64.62;97831.50;5066851;28;20226;-69
2021/12/16 09:56:48;;;;;;;8.87;4.80;;;;;;;4.64;63.93;97827.22;5066028;28;20624;-70
2021/12/16 09:59:17;;;;;;;9.77;5.30;;;;;;;4.59;64.48;97831.56;5066180;28;20749;-70
2021/12/16 10:01:47;;;;;;;11.00;6.57;;;;;;;4.58;64.51;97829.00;5067128;28;20201;-67
2021/12/16 10:04:19;;;;;;;8.40;5.00;;;;;;;4.61;64.74;97831.53;5067095;28;20197;-67
2021/12/16 10:06:53;;;;;;;7.57;4.63;;;;;;;4.48;64.20;97825.66;5066809;28;20186;-73
2021/12/16 10:09:21;;;;;;;10.97;5.87;;;;;;;4.46;64.56;97806.88;5067605;28;20240;-70
2021/12/16 10:11:52;;;;;;;10.13;5.33;;;;;;;4.40;64.51;97803.53;5065245;28;20610;-71
2021/12/16 10:14:33;;;;;;;8.10;5.40;;;;;;;4.49;64.96;97819.66;5066381;28;20201;-70
2021/12/16 10:19:47;;;;;;;13.67;7.87;;;;;;;4.56;65.02;97820.47;5067102;28;20232;-70
2021/12/16 10:22:16;;;;;;;14.97;7.60;;;;;;;4.61;65.52;97811.03;5066081;28;20189;-70
2021/12/16 10:24:43;;;;;;;8.97;6.17;;;;;;;4.49;65.79;97819.66;5066311;28;20615;-71
2021/12/16 10:27:24;;;;;;;9.37;5.63;;;;;;;4.45;65.98;97815.44;5065843;28;20201;-69
2021/12/16 10:29:55;;;;;;;8.77;5.17;;;;;;;4.47;65.25;97811.13;5065981;28;20189;-68
2021/12/16 10:32:30;;;;;;;8.67;5.03;;;;;;;4.51;65.69;97804.28;5081559;28;20220;-73
2021/12/16 10:35:00;;;;;;;11.47;6.37;;;;;;;4.52;65.52;97811.09;5066360;28;20283;-70
2021/12/16 10:37:32;;;;;;;9.37;5.73;;;;;;;4.37;66.13;97798.44;5066444;28;20244;-69
2021/12/16 10:40:22;;;;;;;10.43;6.37;;;;;;;4.58;66.28;97799.06;5065457;28;20746;-70
2021/12/16 10:42:50;;;;;;;12.13;5.77;;;;;;;4.56;65.66;97805.06;5064579;28;20650;-71
2021/12/16 10:45:29;;;;;;;9.23;4.40;;;;;;;4.45;65.87;97805.16;5065197;28;20197;-73
2021/12/16 10:48:14;;;;;;;13.23;7.30;;;;;;;4.59;66.25;97803.34;5064771;28;20208;-71
2021/12/16 10:51:00;;;;;;;10.67;6.13;;;;;;;4.55;65.71;97809.38;5065528;28;20533;-70
2021/12/16 10:53:52;;;;;;;9.97;6.13;;;;;;;4.49;66.51;97806.84;5064794;28;20204;-70
2021/12/16 10:56:53;;;;;;;10.57;6.33;;;;;;;4.47;66.24;97805.19;5066063;28;20192;-66
2021/12/16 10:59:28;;;;;;;10.27;6.90;;;;;;;4.52;66.63;97806.81;5049894;28;20205;-66
2021/12/16 11:02:12;;;;;;;9.90;5.80;;;;;;;4.38;66.67;97810.38;5065684;28;20242;-69
2021/12/16 11:04:57;;;;;;;10.43;5.60;;;;;;;4.40;66.50;97789.00;5066082;28;20715;-71
2021/12/16 11:07:38;;;;;;;8.07;5.23;;;;;;;4.39;66.72;97794.16;5065494;28;20200;-68
2021/12/16 11:10:29;;;;;;;10.23;6.00;;;;;;;4.39;66.52;97800.09;5066121;28;20250;-71
2021/12/16 11:13:02;;;;;;;11.17;6.60;;;;;;;4.31;66.62;97795.94;5065419;28;20246;-70
2021/12/16 11:15:41;;;;;;;10.63;6.87;;;;;;;4.29;66.77;97803.63;5066169;28;20189;-66
2021/12/16 11:18:17;;;;;;;10.13;6.80;;;;;;;4.36;66.70;97799.28;5066322;28;20204;-70
2021/12/16 11:20:54;;;;;;;8.50;5.60;;;;;;;4.27;66.31;97805.34;5065680;28;20289;-68
2021/12/16 11:23:32;;;;;;;12.17;5.93;;;;;;;4.21;66.95;97807.09;5066187;28;20184;-69
2021/12/16 11:26:16;;;;;;;10.87;5.77;;;;;;;4.21;66.94;97790.03;5065550;28;20200;-67
2021/12/16 11:28:50;;;;;;;9.77;5.47;;;;;;;4.19;67.22;97799.44;5065791;28;20204;-67
2021/12/16 11:31:23;;;;;;;10.30;6.50;;;;;;;4.18;67.34;97809.72;5065853;28;20331;-69
2021/12/16 11:33:54;;;;;;;12.20;6.43;;;;;;;4.10;67.16;97791.84;5065084;28;20753;-69
2021/12/16 11:36:27;;;;;;;12.47;5.70;;;;;;;4.11;67.51;97808.91;5066080;28;20680;-68
2021/12/16 11:39:07;;;;;;;8.37;5.50;;;;;;;4.18;66.84;97800.31;5065289;28;20258;-71
2021/12/16 11:41:40;;;;;;;9.77;6.30;;;;;;;4.18;67.92;97797.75;5065583;28;20297;-69
2021/12/16 11:44:21;;;;;;;9.47;6.07;;;;;;;4.24;67.34;97794.28;5065921;28;20222;-69
2021/12/16 11:46:55;;;;;;;8.70;5.63;;;;;;;4.16;67.49;97791.78;5065124;28;20205;-68
2021/12/16 11:49:42;;;;;;;7.87;5.67;;;;;;;4.12;67.72;97780.69;5066156;28;20289;-70
2021/12/16 11:52:13;;;;;;;11.97;6.77;;;;;;;4.15;67.96;97784.97;5065729;28;20262;-68
2021/12/16 11:54:51;;;;;;;11.67;7.00;;;;;;;4.07;68.19;97802.09;5065839;28;20243;-63
2021/12/16 11:57:32;;;;;;;10.07;5.90;;;;;;;4.03;67.74;97774.81;5065715;28;20289;-69
2021/12/16 12:00:13;;;;;;;9.57;6.07;;;;;;;4.08;67.71;97776.47;5063076;28;20289;-70
2021/12/16 12:02:46;;;;;;;8.30;5.27;;;;;;;3.98;67.59;97769.72;5067342;28;20193;-71
2021/12/16 12:05:42;;;;;;;7.43;5.00;;;;;;;3.99;68.29;97775.69;5070350;28;20224;-67
2021/12/16 12:08:14;;;;;;;15.50;7.37;;;;;;;4.03;67.98;97772.25;5070820;28;20203;-67
2021/12/16 12:10:43;;;;;;;9.57;6.27;;;;;;;4.05;68.02;97770.53;5066740;28;20267;-71
2021/12/16 12:13:19;;;;;;;10.10;5.23;;;;;;;3.98;67.94;97781.69;5064871;28;20758;-71
2021/12/16 12:16:07;;;;;;;8.63;5.90;;;;;;;3.95;68.19;97784.28;5069307;28;20193;-68
2021/12/16 12:18:54;;;;;;;8.53;6.10;;;;;;;3.87;68.75;97780.94;5069085;28;20185;-69
2021/12/16 12:21:33;;;;;;;8.73;5.90;;;;;;;3.89;68.33;97766.41;5067877;28;20221;-66
2021/12/16 12:24:09;;;;;;;10.97;6.07;;;;;;;3.92;68.26;97763.78;5069243;28;20221;-68
2021/12/16 12:26:42;;;;;;;11.00;6.57;;;;;;;3.92;68.53;97771.47;5067021;28;20189;-71
2021/12/16 12:29:19;;;;;;;13.13;6.93;;;;;;;3.85;68.97;97777.53;5068794;28;20185;-67
2021/12/16 12:31:53;;;;;;;9.73;5.63;;;;;;;3.83;69.16;97786.94;5068834;28;20219;-69
2021/12/16 12:34:21;;;;;;;10.67;6.60;;;;;;;3.79;69.38;97772.44;5068581;28;20672;-69
2021/12/16 12:36:51;;;;;;;9.30;5.90;;;;;;;3.77;69.87;97758.81;5067987;28;20197;-65
2021/12/16 12:39:23;;;;;;;12.00;6.53;;;;;;;3.65;69.90;97757.16;5068490;28;20289;-70
2021/12/16 12:41:51;;;;;;;12.07;6.47;;;;;;;3.63;70.30;97758.91;5068762;28;20221;-69
2021/12/16 12:44:18;;;;;;;12.17;7.10;;;;;;;3.56;69.75;97771.75;5068658;28;20201;-72
2021/12/16 12:46:47;;;;;;;13.90;7.83;;;;;;;3.56;70.18;97748.72;5067223;28;20676;-67
2021/12/16 12:49:17;;;;;;;11.70;7.10;;;;;;;3.41;70.56;97743.69;5069266;28;20610;-69
2021/12/16 12:51:49;;;;;;;11.40;6.87;;;;;;;3.49;70.73;97745.34;5068109;28;20251;-69
2021/12/16 12:54:21;;;;;;;13.80;7.60;;;;;;;3.37;71.23;97745.44;5068962;28;20189;-67
2021/12/16 12:56:51;;;;;;;13.87;6.47;;;;;;;3.43;71.21;97754.75;5067134;28;20228;-67
2021/12/16 12:59:19;;;;;;;13.37;7.33;;;;;;;3.43;71.16;97785.50;5066807;28;20254;-69
2021/12/16 13:01:53;;;;;;;10.77;6.27;;;;;;;3.39;70.88;97774.44;5068835;28;20224;-67
2021/12/16 13:04:25;;;;;;;8.37;5.20;;;;;;;3.39;71.35;97759.06;5068251;28;20215;-69
2021/12/16 13:07:04;;;;;;;11.23;7.10;;;;;;;3.34;71.11;97739.50;5068993;28;20208;-67
2021/12/16 13:09:37;;;;;;;10.50;5.47;;;;;;;3.43;71.51;97770.13;5068076;28;20592;-67
2021/12/16 13:24:15;;;;;;;12.07;7.43;;;;;;;3.36;71.39;97763.38;5068477;28;20197;-69
2021/12/16 13:27:02;;;;;;;8.43;5.63;;;;;;;3.39;71.07;97764.19;5064572;28;20201;-65
2021/12/16 13:29:43;;;;;;;9.93;6.17;;;;;;;3.37;71.79;97744.56;5067804;28;20235;-63
2021/12/16 13:32:17;;;;;;;12.07;6.47;;;;;;;3.35;71.04;97761.66;5068187;28;20284;-67
2021/12/16 13:37:33;;;;;;;8.37;5.83;;;;;;;3.34;70.88;97763.34;5068014;28;20217;-65
2021/12/16 13:40:24;;;;;;;14.73;7.90;;;;;;;3.40;70.95;97745.38;5066258;28;20188;-68
2021/12/16 13:42:59;;;;;;;11.47;6.63;;;;;;;3.41;71.58;97731.75;5067186;28;20237;-65
2021/12/16 13:45:32;;;;;;;11.33;6.03;;;;;;;3.40;71.14;97742.00;5068064;28;20421;-64
2021/12/16 13:48:28;;;;;;;10.60;7.00;;;;;;;3.41;71.22;97779.53;5067277;28;20683;-67
2021/12/16 14:02:49;;;;;;;11.97;7.67;;;;;;;3.49;70.56;97764.97;5067827;28;20282;-68
2021/12/16 14:07:57;;;;;;;15.53;7.90;;;;;;;3.46;70.95;97765.00;5067174;28;20618;-70
2021/12/16 14:10:47;;;;;;;12.27;7.13;;;;;;;3.45;70.94;97760.72;5067241;28;20192;-67
2021/12/16 14:16:38;;;;;;;15.33;8.50;;;;;;;3.37;71.68;97762.50;5067025;28;20208;-64
2021/12/16 14:50:23;;;;;;;14.80;8.80;;;;;;;3.03;74.34;97789.97;5067129;28;20646;-68
2021/12/16 14:52:51;;;;;;;13.93;7.37;;;;;;;2.92;75.01;97773.81;5066290;28;20626;-63
2021/12/16 14:55:19;;;;;;;12.40;7.03;;;;;;;2.91;74.63;97775.50;5066693;28;20589;-69
2021/12/16 14:57:51;;;;;;;11.53;7.13;;;;;;;3.03;74.84;97782.31;5065993;28;20643;-67
2021/12/16 15:00:41;;;;;;;10.13;6.67;;;;;;;3.01;74.94;97792.53;5066045;28;20242;-70
2021/12/16 15:03:22;;;;;;;11.53;7.50;;;;;;;3.03;74.75;97792.53;5066757;28;20680;-66
2021/12/16 15:05:58;;;;;;;10.90;7.07;;;;;;;3.00;74.58;97783.16;5065953;28;20236;-67
2021/12/16 15:12:48;;;;;;;8.27;5.97;;;;;;;3.05;74.71;97786.53;5046085;28;20239;-66
2021/12/16 15:15:38;;;;;;;8.93;6.37;;;;;;;3.10;73.83;97789.06;5056990;28;20769;-67
2021/12/16 15:37:41;;;;;;;10.23;6.27;;;;;;;3.15;72.73;97775.41;5058987;28;20192;-67
2021/12/16 15:40:32;;;;;;;8.53;5.83;;;;;;;3.13;72.69;97771.16;5060752;28;20765;-69
2021/12/16 15:43:02;;;;;;;9.27;6.27;;;;;;;3.17;72.25;97781.34;5045615;28;20222;-66
2021/12/16 15:45:31;;;;;;;11.20;6.50;;;;;;;3.18;72.64;97785.63;5046146;28;20668;-66
2021/12/16 15:48:03;;;;;;;10.70;7.17;;;;;;;3.18;72.93;97780.50;5044208;28;20194;-62
2021/12/16 15:51:07;;;;;;;15.20;8.47;;;;;;;3.25;72.62;97806.94;5049815;28;20243;-68
2021/12/16 15:53:44;;;;;;;6.93;4.90;;;;;;;3.27;72.27;97785.59;5049736;28;20271;-67
2021/12/16 15:56:20;;;;;;;8.07;6.10;;;;;;;3.23;72.30;97793.28;5049829;28;20195;-65
2021/12/16 15:59:08;;;;;;;10.83;6.77;;;;;;;3.24;72.69;97797.53;5050024;28;20216;-64
2021/12/16 16:01:42;;;;;;;9.93;5.97;;;;;;;3.28;72.56;97794.97;5049317;28;20624;-68
2021/12/16 16:04:12;;;;;;;11.37;6.93;;;;;;;3.33;72.52;97792.38;5050053;28;20189;-69
2021/12/16 16:06:45;;;;;;;10.40;6.87;;;;;;;3.32;72.09;97807.75;5049899;28;20194;-66
2021/12/16 16:09:14;;;;;;;10.57;7.17;;;;;;;3.31;72.62;97786.41;5064904;28;20193;-66
2021/12/16 16:11:48;;;;;;;13.67;7.33;;;;;;;3.34;72.28;97800.91;5050118;28;20202;-68
2021/12/16 16:14:18;;;;;;;11.87;7.53;;;;;;;3.37;72.66;97791.50;5049245;28;20255;-67
2021/12/16 16:16:50;;;;;;;11.10;6.63;;;;;;;3.41;71.71;97794.88;5050057;28;20230;-68
2021/12/16 16:19:22;;;;;;;10.33;6.73;;;;;;;3.40;72.08;97788.09;5047322;28;20198;-65
2021/12/16 16:21:53;;;;;;;9.57;6.33;;;;;;;3.47;71.48;97782.91;5049543;28;20316;-65
2021/12/16 16:24:30;;;;;;;11.83;6.67;;;;;;;3.51;71.47;97779.47;5048970;28;20197;-65
2021/12/16 16:26:59;;;;;;;8.43;5.50;;;;;;;3.53;70.85;97782.88;5047696;28;20193;-68
2021/12/16 16:29:30;;;;;;;9.30;5.40;;;;;;;3.62;70.82;97785.38;5058404;28;20503;-67
2021/12/16 16:31:58;;;;;;;10.87;6.83;;;;;;;3.61;70.76;97793.91;5048396;28;20202;-67
2021/12/16 16:34:32;;;;;;;9.93;7.23;;;;;;;3.61;70.48;97795.59;5062521;28;20221;-61
2021/12/16 16:37:06;;;;;;;12.53;6.33;;;;;;;3.63;71.17;97799.88;5047624;28;20205;-66
2021/12/16 16:39:37;;;;;;;9.10;5.90;;;;;;;3.66;70.46;97799.00;5048999;28;20248;-68
2021/12/16 16:42:09;;;;;;;9.23;5.43;;;;;;;3.66;69.90;97788.75;5069075;28;20244;-69